sensor_id;sensor_type;location;lat;lon;timestamp;P1;durP1;ratioP1;P2;durP2;ratioP2
5696;SDS011;2873;50.966;7.210;2022-10-18T00:01:43;15.93;;;8.57;;
5696;SDS011;2873;50.966;7.210;2022-10-18T00:04:08;12.17;;;7.90;;
5696;SDS011;2873;50.966;7.210;2022-10-18T00:06:34;15.00;;;8.77;;
5696;SDS011;2873;50.966;7.210;2022-10-18T00:08:59;11.70;;;8.40;;
5696;SDS011;2873;50.966;7.210;2022-10-18T00:11:25;17.10;;;9.43;;
5696;SDS011;2873;50.966;7.210;2022-10-18T00:13:51;13.87;;;8.87;;
5696;SDS011;2873;50.966;7.210;2022-10-18T00:16:17;18.30;;;9.70;;
5696;SDS011;2873;50.966;7.210;2022-10-18T00:18:43;15.00;;;8.35;;
5696;SDS011;2873;50.966;7.210;2022-10-18T00:21:19;14.90;;;8.55;;
5696;SDS011;2873;50.966;7.210;2022-10-18T00:23:47;23.48;;;8.65;;
5696;SDS011;2873;50.966;7.210;2022-10-18T00:26:14;16.20;;;8.82;;
5696;SDS011;2873;50.966;7.210;2022-10-18T00:28:45;45.17;;;8.90;;
5696;SDS011;2873;50.966;7.210;2022-10-18T00:31:15;16.75;;;9.70;;
5696;SDS011;2873;50.966;7.210;2022-10-18T00:33:43;15.55;;;9.23;;
5696;SDS011;2873;50.966;7.210;2022-10-18T00:36:10;17.75;;;9.50;;
5696;SDS011;2873;50.966;7.210;2022-10-18T00:38:36;19.40;;;9.75;;
5696;SDS011;2873;50.966;7.210;2022-10-18T00:41:03;15.98;;;9.75;;
5696;SDS011;2873;50.966;7.210;2022-10-18T00:43:29;17.02;;;9.20;;
5696;SDS011;2873;50.966;7.210;2022-10-18T00:45:55;14.07;;;7.78;;
5696;SDS011;2873;50.966;7.210;2022-10-18T00:48:21;20.63;;;8.53;;
5696;SDS011;2873;50.966;7.210;2022-10-18T00:50:47;14.43;;;8.45;;
5696;SDS011;2873;50.966;7.210;2022-10-18T00:53:17;35.53;;;10.27;;
5696;SDS011;2873;50.966;7.210;2022-10-18T00:55:44;20.67;;;9.55;;
5696;SDS011;2873;50.966;7.210;2022-10-18T00:58:10;18.63;;;10.70;;
5696;SDS011;2873;50.966;7.210;2022-10-18T01:00:38;19.00;;;10.50;;
5696;SDS011;2873;50.966;7.210;2022-10-18T01:03:05;18.85;;;9.63;;
5696;SDS011;2873;50.966;7.210;2022-10-18T01:05:31;20.50;;;9.75;;
5696;SDS011;2873;50.966;7.210;2022-10-18T01:08:11;14.38;;;8.73;;
5696;SDS011;2873;50.966;7.210;2022-10-18T01:14:17;19.63;;;9.25;;
5696;SDS011;2873;50.966;7.210;2022-10-18T01:16:37;46.20;;;8.60;;
5696;SDS011;2873;50.966;7.210;2022-10-18T01:22:14;19.77;;;8.13;;
5696;SDS011;2873;50.966;7.210;2022-10-18T01:25:09;11.63;;;7.85;;
5696;SDS011;2873;50.966;7.210;2022-10-18T01:28:00;16.33;;;9.00;;
5696;SDS011;2873;50.966;7.210;2022-10-18T01:30:37;25.83;;;7.00;;
5696;SDS011;2873;50.966;7.210;2022-10-18T01:33:06;11.17;;;5.60;;
5696;SDS011;2873;50.966;7.210;2022-10-18T01:35:36;9.95;;;6.65;;
5696;SDS011;2873;50.966;7.210;2022-10-18T01:38:09;10.75;;;6.20;;
5696;SDS011;2873;50.966;7.210;2022-10-18T01:40:38;13.13;;;7.63;;
5696;SDS011;2873;50.966;7.210;2022-10-18T01:43:06;14.20;;;7.13;;
5696;SDS011;2873;50.966;7.210;2022-10-18T01:45:34;11.52;;;7.03;;
5696;SDS011;2873;50.966;7.210;2022-10-18T01:47:59;11.33;;;7.00;;
5696;SDS011;2873;50.966;7.210;2022-10-18T01:50:28;12.85;;;7.40;;
5696;SDS011;2873;50.966;7.210;2022-10-18T01:52:55;15.45;;;8.30;;
5696;SDS011;2873;50.966;7.210;2022-10-18T01:55:30;17.65;;;7.82;;
5696;SDS011;2873;50.966;7.210;2022-10-18T02:00:44;11.50;;;7.80;;
5696;SDS011;2873;50.966;7.210;2022-10-18T02:03:20;13.80;;;7.80;;
5696;SDS011;2873;50.966;7.210;2022-10-18T02:06:03;12.48;;;7.28;;
5696;SDS011;2873;50.966;7.210;2022-10-18T02:08:36;13.90;;;7.88;;
5696;SDS011;2873;50.966;7.210;2022-10-18T02:11:07;13.02;;;7.90;;
5696;SDS011;2873;50.966;7.210;2022-10-18T02:13:37;13.50;;;8.07;;
5696;SDS011;2873;50.966;7.210;2022-10-18T02:16:11;16.87;;;9.33;;
5696;SDS011;2873;50.966;7.210;2022-10-18T02:18:41;18.83;;;9.50;;
5696;SDS011;2873;50.966;7.210;2022-10-18T02:21:11;15.68;;;8.35;;
5696;SDS011;2873;50.966;7.210;2022-10-18T02:23:41;22.90;;;7.63;;
5696;SDS011;2873;50.966;7.210;2022-10-18T02:26:09;12.43;;;7.63;;
5696;SDS011;2873;50.966;7.210;2022-10-18T02:28:34;14.43;;;7.00;;
5696;SDS011;2873;50.966;7.210;2022-10-18T02:33:41;15.85;;;8.43;;
5696;SDS011;2873;50.966;7.210;2022-10-18T02:36:30;16.38;;;8.15;;
5696;SDS011;2873;50.966;7.210;2022-10-18T02:39:03;53.58;;;8.25;;
5696;SDS011;2873;50.966;7.210;2022-10-18T02:41:32;15.18;;;6.97;;
5696;SDS011;2873;50.966;7.210;2022-10-18T02:43:58;15.60;;;7.50;;
5696;SDS011;2873;50.966;7.210;2022-10-18T02:46:24;14.53;;;7.87;;
5696;SDS011;2873;50.966;7.210;2022-10-18T02:48:49;16.17;;;7.80;;
5696;SDS011;2873;50.966;7.210;2022-10-18T02:51:15;13.97;;;8.47;;
5696;SDS011;2873;50.966;7.210;2022-10-18T02:53:40;12.97;;;8.40;;
5696;SDS011;2873;50.966;7.210;2022-10-18T02:56:06;16.35;;;7.90;;
5696;SDS011;2873;50.966;7.210;2022-10-18T02:58:32;12.07;;;5.40;;
5696;SDS011;2873;50.966;7.210;2022-10-18T03:00:57;10.83;;;6.10;;
5696;SDS011;2873;50.966;7.210;2022-10-18T03:03:23;16.15;;;8.68;;
5696;SDS011;2873;50.966;7.210;2022-10-18T03:05:49;14.03;;;7.90;;
5696;SDS011;2873;50.966;7.210;2022-10-18T03:08:15;13.90;;;8.00;;
5696;SDS011;2873;50.966;7.210;2022-10-18T03:10:45;13.73;;;7.53;;
5696;SDS011;2873;50.966;7.210;2022-10-18T03:13:11;13.27;;;8.67;;
5696;SDS011;2873;50.966;7.210;2022-10-18T03:15:37;22.65;;;11.40;;
5696;SDS011;2873;50.966;7.210;2022-10-18T03:18:03;28.17;;;13.57;;
5696;SDS011;2873;50.966;7.210;2022-10-18T03:20:28;27.07;;;12.90;;
5696;SDS011;2873;50.966;7.210;2022-10-18T03:22:54;21.80;;;12.50;;
5696;SDS011;2873;50.966;7.210;2022-10-18T03:25:19;26.65;;;13.35;;
5696;SDS011;2873;50.966;7.210;2022-10-18T03:27:45;22.97;;;11.80;;
5696;SDS011;2873;50.966;7.210;2022-10-18T03:30:11;21.63;;;10.95;;
5696;SDS011;2873;50.966;7.210;2022-10-18T03:32:37;18.75;;;9.98;;
5696;SDS011;2873;50.966;7.210;2022-10-18T03:35:04;21.05;;;9.48;;
5696;SDS011;2873;50.966;7.210;2022-10-18T03:37:31;20.35;;;9.18;;
5696;SDS011;2873;50.966;7.210;2022-10-18T03:39:57;15.50;;;9.30;;
5696;SDS011;2873;50.966;7.210;2022-10-18T03:42:22;13.20;;;8.77;;
5696;SDS011;2873;50.966;7.210;2022-10-18T03:44:48;16.83;;;9.37;;
5696;SDS011;2873;50.966;7.210;2022-10-18T03:47:13;15.30;;;9.10;;
5696;SDS011;2873;50.966;7.210;2022-10-18T03:49:39;14.85;;;8.88;;
5696;SDS011;2873;50.966;7.210;2022-10-18T03:52:04;15.03;;;9.27;;
5696;SDS011;2873;50.966;7.210;2022-10-18T03:54:30;33.20;;;9.80;;
5696;SDS011;2873;50.966;7.210;2022-10-18T03:56:56;45.22;;;7.75;;
5696;SDS011;2873;50.966;7.210;2022-10-18T03:59:21;13.70;;;7.90;;
5696;SDS011;2873;50.966;7.210;2022-10-18T04:01:47;13.50;;;7.50;;
5696;SDS011;2873;50.966;7.210;2022-10-18T04:04:13;15.95;;;8.20;;
5696;SDS011;2873;50.966;7.210;2022-10-18T04:06:39;13.32;;;7.72;;
5696;SDS011;2873;50.966;7.210;2022-10-18T04:09:04;13.35;;;7.75;;
5696;SDS011;2873;50.966;7.210;2022-10-18T04:11:30;15.57;;;7.65;;
5696;SDS011;2873;50.966;7.210;2022-10-18T04:13:56;12.07;;;7.30;;
5696;SDS011;2873;50.966;7.210;2022-10-18T04:16:21;8.80;;;6.10;;
5696;SDS011;2873;50.966;7.210;2022-10-18T04:18:47;20.73;;;6.43;;
5696;SDS011;2873;50.966;7.210;2022-10-18T04:21:12;153.75;;;8.80;;
5696;SDS011;2873;50.966;7.210;2022-10-18T04:23:38;16.13;;;6.60;;
5696;SDS011;2873;50.966;7.210;2022-10-18T04:26:04;27.70;;;6.50;;
5696;SDS011;2873;50.966;7.210;2022-10-18T04:28:29;25.40;;;6.78;;
5696;SDS011;2873;50.966;7.210;2022-10-18T04:30:55;8.57;;;5.60;;
5696;SDS011;2873;50.966;7.210;2022-10-18T04:33:21;11.27;;;6.50;;
5696;SDS011;2873;50.966;7.210;2022-10-18T04:35:49;10.48;;;6.60;;
5696;SDS011;2873;50.966;7.210;2022-10-18T04:38:16;13.98;;;6.50;;
5696;SDS011;2873;50.966;7.210;2022-10-18T04:40:42;11.48;;;6.93;;
5696;SDS011;2873;50.966;7.210;2022-10-18T04:43:07;14.00;;;6.87;;
5696;SDS011;2873;50.966;7.210;2022-10-18T04:45:33;19.95;;;6.80;;
5696;SDS011;2873;50.966;7.210;2022-10-18T04:47:59;11.40;;;6.90;;
5696;SDS011;2873;50.966;7.210;2022-10-18T04:50:24;57.50;;;7.40;;
5696;SDS011;2873;50.966;7.210;2022-10-18T04:52:50;51.10;;;9.75;;
5696;SDS011;2873;50.966;7.210;2022-10-18T04:55:17;48.50;;;8.95;;
5696;SDS011;2873;50.966;7.210;2022-10-18T04:57:43;61.07;;;7.80;;
5696;SDS011;2873;50.966;7.210;2022-10-18T05:00:09;20.85;;;7.10;;
5696;SDS011;2873;50.966;7.210;2022-10-18T05:02:35;18.25;;;8.20;;
5696;SDS011;2873;50.966;7.210;2022-10-18T05:05:00;14.25;;;7.70;;
5696;SDS011;2873;50.966;7.210;2022-10-18T05:07:26;20.07;;;7.37;;
5696;SDS011;2873;50.966;7.210;2022-10-18T05:09:51;19.83;;;8.40;;
5696;SDS011;2873;50.966;7.210;2022-10-18T05:12:17;15.13;;;8.30;;
5696;SDS011;2873;50.966;7.210;2022-10-18T05:14:43;17.60;;;8.27;;
5696;SDS011;2873;50.966;7.210;2022-10-18T05:17:08;15.88;;;8.43;;
5696;SDS011;2873;50.966;7.210;2022-10-18T05:19:34;20.60;;;8.52;;
5696;SDS011;2873;50.966;7.210;2022-10-18T05:21:59;18.30;;;8.70;;
5696;SDS011;2873;50.966;7.210;2022-10-18T05:24:25;21.98;;;9.40;;
5696;SDS011;2873;50.966;7.210;2022-10-18T05:26:51;13.95;;;7.85;;
5696;SDS011;2873;50.966;7.210;2022-10-18T05:29:16;14.07;;;8.10;;
5696;SDS011;2873;50.966;7.210;2022-10-18T05:31:42;15.43;;;8.33;;
5696;SDS011;2873;50.966;7.210;2022-10-18T05:34:07;16.92;;;7.97;;
5696;SDS011;2873;50.966;7.210;2022-10-18T05:36:33;14.60;;;7.83;;
5696;SDS011;2873;50.966;7.210;2022-10-18T05:38:58;14.90;;;7.70;;
5696;SDS011;2873;50.966;7.210;2022-10-18T05:41:24;14.77;;;7.75;;
5696;SDS011;2873;50.966;7.210;2022-10-18T05:43:49;14.70;;;7.33;;
5696;SDS011;2873;50.966;7.210;2022-10-18T05:46:15;15.93;;;7.70;;
5696;SDS011;2873;50.966;7.210;2022-10-18T05:48:41;15.70;;;7.60;;
5696;SDS011;2873;50.966;7.210;2022-10-18T05:51:08;13.68;;;7.40;;
5696;SDS011;2873;50.966;7.210;2022-10-18T05:53:33;15.13;;;7.57;;
5696;SDS011;2873;50.966;7.210;2022-10-18T05:55:59;13.30;;;6.90;;
5696;SDS011;2873;50.966;7.210;2022-10-18T05:58:25;12.47;;;6.93;;
5696;SDS011;2873;50.966;7.210;2022-10-18T06:00:51;13.95;;;7.60;;
5696;SDS011;2873;50.966;7.210;2022-10-18T06:03:16;14.27;;;6.43;;
5696;SDS011;2873;50.966;7.210;2022-10-18T06:05:42;14.27;;;7.20;;
5696;SDS011;2873;50.966;7.210;2022-10-18T06:08:08;13.50;;;7.32;;
5696;SDS011;2873;50.966;7.210;2022-10-18T06:10:34;13.20;;;7.05;;
5696;SDS011;2873;50.966;7.210;2022-10-18T06:13:02;13.63;;;6.55;;
5696;SDS011;2873;50.966;7.210;2022-10-18T06:15:27;11.85;;;6.22;;
5696;SDS011;2873;50.966;7.210;2022-10-18T06:17:53;12.40;;;6.67;;
5696;SDS011;2873;50.966;7.210;2022-10-18T06:20:18;11.30;;;7.37;;
5696;SDS011;2873;50.966;7.210;2022-10-18T06:22:44;13.35;;;7.13;;
5696;SDS011;2873;50.966;7.210;2022-10-18T06:25:10;13.97;;;8.10;;
5696;SDS011;2873;50.966;7.210;2022-10-18T06:27:35;12.67;;;6.93;;
5696;SDS011;2873;50.966;7.210;2022-10-18T06:30:00;12.40;;;6.97;;
5696;SDS011;2873;50.966;7.210;2022-10-18T06:32:26;16.83;;;8.23;;
5696;SDS011;2873;50.966;7.210;2022-10-18T06:34:52;15.80;;;8.17;;
5696;SDS011;2873;50.966;7.210;2022-10-18T06:37:17;15.60;;;7.22;;
5696;SDS011;2873;50.966;7.210;2022-10-18T06:39:43;14.85;;;6.93;;
5696;SDS011;2873;50.966;7.210;2022-10-18T06:42:08;13.13;;;6.53;;
5696;SDS011;2873;50.966;7.210;2022-10-18T06:44:34;11.73;;;6.10;;
5696;SDS011;2873;50.966;7.210;2022-10-18T06:46:59;11.47;;;7.03;;
5696;SDS011;2873;50.966;7.210;2022-10-18T06:49:25;17.75;;;7.20;;
5696;SDS011;2873;50.966;7.210;2022-10-18T06:51:52;15.73;;;7.40;;
5696;SDS011;2873;50.966;7.210;2022-10-18T06:54:17;16.52;;;6.78;;
5696;SDS011;2873;50.966;7.210;2022-10-18T06:56:43;15.47;;;6.60;;
5696;SDS011;2873;50.966;7.210;2022-10-18T06:59:08;12.40;;;6.97;;
5696;SDS011;2873;50.966;7.210;2022-10-18T07:01:34;17.92;;;6.85;;
5696;SDS011;2873;50.966;7.210;2022-10-18T07:04:00;58.10;;;6.70;;
5696;SDS011;2873;50.966;7.210;2022-10-18T07:06:25;12.02;;;6.30;;
5696;SDS011;2873;50.966;7.210;2022-10-18T07:08:51;13.13;;;7.03;;
5696;SDS011;2873;50.966;7.210;2022-10-18T07:11:20;14.67;;;6.47;;
5696;SDS011;2873;50.966;7.210;2022-10-18T07:13:48;12.75;;;6.63;;
5696;SDS011;2873;50.966;7.210;2022-10-18T07:16:15;11.05;;;6.68;;
5696;SDS011;2873;50.966;7.210;2022-10-18T07:18:44;11.45;;;5.72;;
5696;SDS011;2873;50.966;7.210;2022-10-18T07:21:13;13.27;;;5.90;;
5696;SDS011;2873;50.966;7.210;2022-10-18T07:23:40;13.70;;;5.97;;
5696;SDS011;2873;50.966;7.210;2022-10-18T07:26:11;13.30;;;6.53;;
5696;SDS011;2873;50.966;7.210;2022-10-18T07:28:42;15.00;;;7.38;;
5696;SDS011;2873;50.966;7.210;2022-10-18T07:31:10;15.57;;;7.80;;
5696;SDS011;2873;50.966;7.210;2022-10-18T07:33:37;16.30;;;8.10;;
5696;SDS011;2873;50.966;7.210;2022-10-18T07:36:04;19.17;;;8.23;;
5696;SDS011;2873;50.966;7.210;2022-10-18T07:38:31;15.82;;;7.80;;
5696;SDS011;2873;50.966;7.210;2022-10-18T07:40:57;16.43;;;7.80;;
5696;SDS011;2873;50.966;7.210;2022-10-18T07:43:24;12.90;;;7.38;;
5696;SDS011;2873;50.966;7.210;2022-10-18T07:45:50;14.73;;;7.75;;
5696;SDS011;2873;50.966;7.210;2022-10-18T07:48:19;15.60;;;7.70;;
5696;SDS011;2873;50.966;7.210;2022-10-18T07:50:45;36.07;;;8.37;;
5696;SDS011;2873;50.966;7.210;2022-10-18T07:53:10;14.10;;;7.50;;
5696;SDS011;2873;50.966;7.210;2022-10-18T07:55:36;20.13;;;8.60;;
5696;SDS011;2873;50.966;7.210;2022-10-18T07:58:02;18.57;;;8.40;;
5696;SDS011;2873;50.966;7.210;2022-10-18T08:00:27;17.60;;;8.93;;
5696;SDS011;2873;50.966;7.210;2022-10-18T08:02:56;18.93;;;9.63;;
5696;SDS011;2873;50.966;7.210;2022-10-18T08:05:23;17.23;;;9.23;;
5696;SDS011;2873;50.966;7.210;2022-10-18T08:07:49;17.10;;;8.90;;
5696;SDS011;2873;50.966;7.210;2022-10-18T08:10:15;18.90;;;9.35;;
5696;SDS011;2873;50.966;7.210;2022-10-18T08:12:40;16.13;;;8.93;;
5696;SDS011;2873;50.966;7.210;2022-10-18T08:15:06;17.30;;;9.43;;
5696;SDS011;2873;50.966;7.210;2022-10-18T08:17:32;17.35;;;9.30;;
5696;SDS011;2873;50.966;7.210;2022-10-18T08:19:58;13.43;;;8.13;;
5696;SDS011;2873;50.966;7.210;2022-10-18T08:22:23;15.77;;;8.35;;
5696;SDS011;2873;50.966;7.210;2022-10-18T08:24:49;14.43;;;8.50;;
5696;SDS011;2873;50.966;7.210;2022-10-18T08:27:15;18.00;;;8.97;;
5696;SDS011;2873;50.966;7.210;2022-10-18T08:29:40;15.73;;;9.38;;
5696;SDS011;2873;50.966;7.210;2022-10-18T08:32:06;17.93;;;9.73;;
5696;SDS011;2873;50.966;7.210;2022-10-18T08:34:33;18.05;;;9.82;;
5696;SDS011;2873;50.966;7.210;2022-10-18T08:36:59;17.10;;;10.00;;
5696;SDS011;2873;50.966;7.210;2022-10-18T08:39:24;18.48;;;11.00;;
5696;SDS011;2873;50.966;7.210;2022-10-18T08:42:09;18.80;;;11.17;;
5696;SDS011;2873;50.966;7.210;2022-10-18T08:44:58;19.63;;;10.40;;
5696;SDS011;2873;50.966;7.210;2022-10-18T08:47:30;24.23;;;10.30;;
5696;SDS011;2873;50.966;7.210;2022-10-18T08:50:06;20.95;;;10.55;;
5696;SDS011;2873;50.966;7.210;2022-10-18T08:52:57;23.58;;;12.50;;
5696;SDS011;2873;50.966;7.210;2022-10-18T09:06:34;36.50;;;15.80;;
5696;SDS011;2873;50.966;7.210;2022-10-18T09:09:19;32.42;;;14.13;;
5696;SDS011;2873;50.966;7.210;2022-10-18T09:15:15;35.08;;;15.15;;
5696;SDS011;2873;50.966;7.210;2022-10-18T09:18:12;32.97;;;15.80;;
5696;SDS011;2873;50.966;7.210;2022-10-18T09:26:15;38.70;;;17.20;;
5696;SDS011;2873;50.966;7.210;2022-10-18T09:31:14;38.38;;;17.73;;
5696;SDS011;2873;50.966;7.210;2022-10-18T09:33:55;32.57;;;16.47;;
5696;SDS011;2873;50.966;7.210;2022-10-18T09:36:26;37.60;;;17.83;;
5696;SDS011;2873;50.966;7.210;2022-10-18T09:39:01;39.67;;;17.48;;
5696;SDS011;2873;50.966;7.210;2022-10-18T09:47:23;37.70;;;17.38;;
5696;SDS011;2873;50.966;7.210;2022-10-18T09:50:14;40.50;;;18.88;;
5696;SDS011;2873;50.966;7.210;2022-10-18T09:52:50;44.03;;;18.77;;
5696;SDS011;2873;50.966;7.210;2022-10-18T09:55:21;44.55;;;18.70;;
5696;SDS011;2873;50.966;7.210;2022-10-18T09:57:52;42.72;;;18.85;;
5696;SDS011;2873;50.966;7.210;2022-10-18T10:00:28;44.67;;;18.92;;
5696;SDS011;2873;50.966;7.210;2022-10-18T10:02:59;39.35;;;18.35;;
5696;SDS011;2873;50.966;7.210;2022-10-18T10:05:25;41.10;;;18.15;;
5696;SDS011;2873;50.966;7.210;2022-10-18T10:07:55;40.70;;;18.70;;
5696;SDS011;2873;50.966;7.210;2022-10-18T10:10:24;42.45;;;18.95;;
5696;SDS011;2873;50.966;7.210;2022-10-18T10:16:00;53.85;;;20.08;;
5696;SDS011;2873;50.966;7.210;2022-10-18T10:18:30;49.50;;;19.97;;
5696;SDS011;2873;50.966;7.210;2022-10-18T10:21:00;43.70;;;18.38;;
5696;SDS011;2873;50.966;7.210;2022-10-18T10:23:35;45.35;;;18.73;;
5696;SDS011;2873;50.966;7.210;2022-10-18T10:26:29;49.90;;;19.05;;
5696;SDS011;2873;50.966;7.210;2022-10-18T10:28:57;45.93;;;18.67;;
5696;SDS011;2873;50.966;7.210;2022-10-18T10:33:56;45.33;;;17.73;;
5696;SDS011;2873;50.966;7.210;2022-10-18T10:36:24;38.15;;;16.25;;
5696;SDS011;2873;50.966;7.210;2022-10-18T10:41:45;29.20;;;15.30;;
5696;SDS011;2873;50.966;7.210;2022-10-18T10:44:30;31.83;;;14.82;;
5696;SDS011;2873;50.966;7.210;2022-10-18T10:46:59;31.83;;;14.98;;
5696;SDS011;2873;50.966;7.210;2022-10-18T10:52:03;31.23;;;14.50;;
5696;SDS011;2873;50.966;7.210;2022-10-18T10:54:30;30.48;;;15.18;;
5696;SDS011;2873;50.966;7.210;2022-10-18T10:59:41;32.92;;;15.18;;
5696;SDS011;2873;50.966;7.210;2022-10-18T11:02:17;33.15;;;15.90;;
5696;SDS011;2873;50.966;7.210;2022-10-18T11:04:45;33.80;;;15.77;;
5696;SDS011;2873;50.966;7.210;2022-10-18T11:12:38;36.72;;;16.40;;
5696;SDS011;2873;50.966;7.210;2022-10-18T11:20:46;27.90;;;15.53;;
5696;SDS011;2873;50.966;7.210;2022-10-18T11:23:17;26.20;;;14.45;;
5696;SDS011;2873;50.966;7.210;2022-10-18T11:40:24;30.92;;;17.08;;
5696;SDS011;2873;50.966;7.210;2022-10-18T11:45:47;25.65;;;15.00;;
5696;SDS011;2873;50.966;7.210;2022-10-18T12:02:47;41.75;;;19.92;;
5696;SDS011;2873;50.966;7.210;2022-10-18T12:05:24;33.40;;;18.63;;
5696;SDS011;2873;50.966;7.210;2022-10-18T12:10:26;30.80;;;18.80;;
5696;SDS011;2873;50.966;7.210;2022-10-18T12:12:56;25.35;;;16.13;;
5696;SDS011;2873;50.966;7.210;2022-10-18T12:15:26;26.73;;;17.10;;
5696;SDS011;2873;50.966;7.210;2022-10-18T12:17:55;24.40;;;15.05;;
5696;SDS011;2873;50.966;7.210;2022-10-18T12:23:12;19.85;;;13.95;;
5696;SDS011;2873;50.966;7.210;2022-10-18T12:25:42;21.42;;;14.52;;
5696;SDS011;2873;50.966;7.210;2022-10-18T12:33:45;23.90;;;15.30;;
5696;SDS011;2873;50.966;7.210;2022-10-18T12:39:09;25.08;;;16.85;;
5696;SDS011;2873;50.966;7.210;2022-10-18T12:41:40;25.02;;;15.50;;
5696;SDS011;2873;50.966;7.210;2022-10-18T12:44:15;25.40;;;15.60;;
5696;SDS011;2873;50.966;7.210;2022-10-18T12:46:43;21.90;;;14.75;;
5696;SDS011;2873;50.966;7.210;2022-10-18T12:49:20;21.63;;;14.57;;
5696;SDS011;2873;50.966;7.210;2022-10-18T12:52:05;22.65;;;14.07;;
5696;SDS011;2873;50.966;7.210;2022-10-18T12:54:59;23.42;;;14.95;;
5696;SDS011;2873;50.966;7.210;2022-10-18T12:57:25;23.42;;;16.13;;
5696;SDS011;2873;50.966;7.210;2022-10-18T13:08:31;26.45;;;17.90;;
5696;SDS011;2873;50.966;7.210;2022-10-18T13:16:32;21.10;;;14.50;;
5696;SDS011;2873;50.966;7.210;2022-10-18T13:24:34;25.30;;;16.17;;
5696;SDS011;2873;50.966;7.210;2022-10-18T13:35:42;22.83;;;15.75;;
5696;SDS011;2873;50.966;7.210;2022-10-18T13:41:18;26.42;;;20.20;;
5696;SDS011;2873;50.966;7.210;2022-10-18T13:46:21;27.45;;;19.20;;
5696;SDS011;2873;50.966;7.210;2022-10-18T13:48:48;36.17;;;21.40;;
5696;SDS011;2873;50.966;7.210;2022-10-18T13:56:49;42.58;;;26.30;;
5696;SDS011;2873;50.966;7.210;2022-10-18T13:59:38;48.95;;;29.00;;
5696;SDS011;2873;50.966;7.210;2022-10-18T14:02:22;53.70;;;30.85;;
5696;SDS011;2873;50.966;7.210;2022-10-18T14:08:09;58.03;;;30.65;;
5696;SDS011;2873;50.966;7.210;2022-10-18T14:14:05;56.22;;;31.35;;
5696;SDS011;2873;50.966;7.210;2022-10-18T14:16:41;57.60;;;30.83;;
5696;SDS011;2873;50.966;7.210;2022-10-18T14:22:01;58.20;;;30.50;;
5696;SDS011;2873;50.966;7.210;2022-10-18T14:24:43;52.30;;;28.38;;
5696;SDS011;2873;50.966;7.210;2022-10-18T14:27:16;51.10;;;27.45;;
5696;SDS011;2873;50.966;7.210;2022-10-18T14:29:44;50.13;;;26.40;;
5696;SDS011;2873;50.966;7.210;2022-10-18T14:32:27;51.33;;;26.67;;
5696;SDS011;2873;50.966;7.210;2022-10-18T14:34:55;45.35;;;23.92;;
5696;SDS011;2873;50.966;7.210;2022-10-18T14:37:25;42.70;;;23.87;;
5696;SDS011;2873;50.966;7.210;2022-10-18T14:39:51;45.92;;;23.48;;
5696;SDS011;2873;50.966;7.210;2022-10-18T14:42:21;40.97;;;22.00;;
5696;SDS011;2873;50.966;7.210;2022-10-18T14:44:49;38.23;;;20.50;;
5696;SDS011;2873;50.966;7.210;2022-10-18T14:47:22;38.92;;;21.00;;
5696;SDS011;2873;50.966;7.210;2022-10-18T14:49:50;34.70;;;19.77;;
5696;SDS011;2873;50.966;7.210;2022-10-18T14:52:19;39.33;;;20.92;;
5696;SDS011;2873;50.966;7.210;2022-10-18T14:54:49;30.58;;;19.30;;
5696;SDS011;2873;50.966;7.210;2022-10-18T14:57:18;34.10;;;18.08;;
5696;SDS011;2873;50.966;7.210;2022-10-18T14:59:49;31.08;;;16.73;;
5696;SDS011;2873;50.966;7.210;2022-10-18T15:02:23;30.87;;;17.53;;
5696;SDS011;2873;50.966;7.210;2022-10-18T15:05:07;33.83;;;18.27;;
5696;SDS011;2873;50.966;7.210;2022-10-18T15:07:41;29.92;;;17.10;;
5696;SDS011;2873;50.966;7.210;2022-10-18T15:10:09;26.20;;;15.10;;
5696;SDS011;2873;50.966;7.210;2022-10-18T15:12:40;25.02;;;15.38;;
5696;SDS011;2873;50.966;7.210;2022-10-18T15:15:10;22.98;;;13.90;;
5696;SDS011;2873;50.966;7.210;2022-10-18T15:17:48;28.08;;;15.23;;
5696;SDS011;2873;50.966;7.210;2022-10-18T15:20:22;26.45;;;14.27;;
5696;SDS011;2873;50.966;7.210;2022-10-18T15:22:49;22.42;;;13.45;;
5696;SDS011;2873;50.966;7.210;2022-10-18T15:25:25;23.88;;;13.60;;
5696;SDS011;2873;50.966;7.210;2022-10-18T15:27:55;23.70;;;14.07;;
5696;SDS011;2873;50.966;7.210;2022-10-18T15:32:55;20.80;;;12.68;;
5696;SDS011;2873;50.966;7.210;2022-10-18T15:35:27;19.38;;;12.35;;
5696;SDS011;2873;50.966;7.210;2022-10-18T15:37:59;20.23;;;12.55;;
5696;SDS011;2873;50.966;7.210;2022-10-18T15:40:30;23.40;;;12.13;;
5696;SDS011;2873;50.966;7.210;2022-10-18T15:42:59;21.42;;;12.68;;
5696;SDS011;2873;50.966;7.210;2022-10-18T15:45:31;25.42;;;13.40;;
5696;SDS011;2873;50.966;7.210;2022-10-18T15:55:49;21.08;;;11.57;;
5696;SDS011;2873;50.966;7.210;2022-10-18T15:58:25;23.65;;;12.55;;
5696;SDS011;2873;50.966;7.210;2022-10-18T16:00:56;19.33;;;10.88;;
5696;SDS011;2873;50.966;7.210;2022-10-18T16:03:24;20.90;;;12.10;;
5696;SDS011;2873;50.966;7.210;2022-10-18T16:05:52;24.77;;;12.20;;
5696;SDS011;2873;50.966;7.210;2022-10-18T16:08:24;23.03;;;13.10;;
5696;SDS011;2873;50.966;7.210;2022-10-18T16:10:54;19.60;;;11.30;;
5696;SDS011;2873;50.966;7.210;2022-10-18T16:13:20;22.88;;;11.95;;
5696;SDS011;2873;50.966;7.210;2022-10-18T16:15:46;19.90;;;11.20;;
5696;SDS011;2873;50.966;7.210;2022-10-18T16:18:12;20.25;;;10.70;;
5696;SDS011;2873;50.966;7.210;2022-10-18T16:20:41;23.45;;;10.75;;
5696;SDS011;2873;50.966;7.210;2022-10-18T16:23:14;20.85;;;11.27;;
5696;SDS011;2873;50.966;7.210;2022-10-18T16:25:45;20.30;;;11.02;;
5696;SDS011;2873;50.966;7.210;2022-10-18T16:28:12;21.48;;;10.75;;
5696;SDS011;2873;50.966;7.210;2022-10-18T16:30:55;17.65;;;10.77;;
5696;SDS011;2873;50.966;7.210;2022-10-18T16:33:23;20.67;;;10.90;;
5696;SDS011;2873;50.966;7.210;2022-10-18T16:35:49;30.95;;;11.52;;
5696;SDS011;2873;50.966;7.210;2022-10-18T16:38:34;21.15;;;10.40;;
5696;SDS011;2873;50.966;7.210;2022-10-18T16:41:04;23.60;;;10.77;;
5696;SDS011;2873;50.966;7.210;2022-10-18T16:43:31;18.40;;;11.50;;
5696;SDS011;2873;50.966;7.210;2022-10-18T16:45:58;20.60;;;10.82;;
5696;SDS011;2873;50.966;7.210;2022-10-18T16:48:24;24.38;;;10.00;;
5696;SDS011;2873;50.966;7.210;2022-10-18T16:50:52;22.58;;;10.60;;
5696;SDS011;2873;50.966;7.210;2022-10-18T16:53:19;18.02;;;9.90;;
5696;SDS011;2873;50.966;7.210;2022-10-18T16:55:48;18.90;;;10.50;;
5696;SDS011;2873;50.966;7.210;2022-10-18T16:58:16;18.50;;;10.93;;
5696;SDS011;2873;50.966;7.210;2022-10-18T17:00:43;25.52;;;15.77;;
5696;SDS011;2873;50.966;7.210;2022-10-18T17:03:10;32.05;;;15.63;;
5696;SDS011;2873;50.966;7.210;2022-10-18T17:05:36;28.33;;;13.68;;
5696;SDS011;2873;50.966;7.210;2022-10-18T17:08:02;24.95;;;12.63;;
5696;SDS011;2873;50.966;7.210;2022-10-18T17:10:28;26.80;;;11.95;;
5696;SDS011;2873;50.966;7.210;2022-10-18T17:12:54;25.37;;;11.77;;
5696;SDS011;2873;50.966;7.210;2022-10-18T17:15:19;23.98;;;11.93;;
5696;SDS011;2873;50.966;7.210;2022-10-18T17:17:45;19.10;;;11.20;;
5696;SDS011;2873;50.966;7.210;2022-10-18T17:20:23;25.08;;;11.77;;
5696;SDS011;2873;50.966;7.210;2022-10-18T17:22:50;21.23;;;10.80;;
5696;SDS011;2873;50.966;7.210;2022-10-18T17:25:16;20.25;;;10.63;;
5696;SDS011;2873;50.966;7.210;2022-10-18T17:27:43;22.73;;;12.05;;
5696;SDS011;2873;50.966;7.210;2022-10-18T17:30:10;23.20;;;11.73;;
5696;SDS011;2873;50.966;7.210;2022-10-18T17:32:37;24.48;;;16.83;;
5696;SDS011;2873;50.966;7.210;2022-10-18T17:35:03;30.25;;;18.70;;
5696;SDS011;2873;50.966;7.210;2022-10-18T17:37:29;27.77;;;17.38;;
5696;SDS011;2873;50.966;7.210;2022-10-18T17:39:55;29.10;;;16.63;;
5696;SDS011;2873;50.966;7.210;2022-10-18T17:42:20;25.97;;;15.00;;
5696;SDS011;2873;50.966;7.210;2022-10-18T17:44:46;18.63;;;13.20;;
5696;SDS011;2873;50.966;7.210;2022-10-18T17:47:12;24.45;;;11.57;;
5696;SDS011;2873;50.966;7.210;2022-10-18T17:49:38;25.88;;;11.15;;
5696;SDS011;2873;50.966;7.210;2022-10-18T17:52:04;19.10;;;10.85;;
5696;SDS011;2873;50.966;7.210;2022-10-18T17:54:29;25.03;;;11.30;;
5696;SDS011;2873;50.966;7.210;2022-10-18T17:56:55;25.42;;;13.48;;